Currently 63°F in San Diego (City Heights), California, USA
63°F
63°F / 62°F
2 mph S
0.00"
Sunday, June 24, 2018 6:15 AM PDT

San Diego (City Heights), California Weather Summary
Last 36 Hours

Temperature Winds Hourly Humidity Dewpoint
Time Report Norm Report Norm Max Gusts Precip. Rpt. Norm Rpt. Norm Pressure
1Sun 06:15 AM  62.6°F  64°F  2 mph S  1 mph  3 mph  0.00"  86%  86%  58°F  59°F  N/A
Sun 06:00 AM  62.7°F  64°F  3 mph S  1 mph  4 mph  0.00"  86%  86%  58°F  59°F  N/A
Sun 05:00 AM  62.7°F  64°F  2 mph SE  1 mph  6 mph  0.00"  86%  86%  58°F  59°F  N/A
2Sun 04:43 AM  62.9°F  64°F  2 mph SE  1 mph  5 mph  ----  86%  86%  58°F  59°F  N/A
Sun 04:00 AM  62.7°F  64°F  calm  1 mph  5 mph  0.00"  86%  86%  58°F  59°F  N/A
Sun 03:00 AM  62.7°F  64°F  2 mph SE  calm  6 mph  0.00"  86%  86%  58°F  59°F  N/A
3Sun 02:02 AM  62.2°F  64°F  1 mph S  calm  6 mph  ----  87%  85%  58°F  60°F  N/A
Sun 02:00 AM  62.3°F  64°F  1 mph S  1 mph  7 mph  0.00"  87%  85%  58°F  60°F  N/A
Sun 01:00 AM  62.5°F  65°F  3 mph S  1 mph  6 mph  0.00"  86%  85%  58°F  60°F  N/A
Sun 12:00 AM  62.7°F  65°F  calm  1 mph  8 mph  0.00"  86%  83%  58°F  60°F  N/A
Sat 11:00 PM  62.8°F  66°F  2 mph S  1 mph  10 mph  0.00"  86%  82%  58°F  60°F  N/A
Sat 10:00 PM  62.9°F  66°F  6 mph S  1 mph  8 mph  0.00"  85%  81%  58°F  60°F  N/A
Sat 09:00 PM  63.1°F  67°F  3 mph S  1 mph  10 mph  0.00"  84%  79%  58°F  60°F  N/A
Sat 08:00 PM  63.4°F  69°F  2 mph S  2 mph  9 mph  0.00"  83%  74%  58°F  60°F  N/A
Sat 07:00 PM  64.2°F  72°F  4 mph SE  3 mph  10 mph  0.00"  81%  66%  58°F  60°F  N/A
Sat 06:00 PM  65.2°F  75°F  4 mph S  3 mph  10 mph  0.00"  79%  60%  58°F  60°F  N/A
Sat 05:00 PM  65.8°F  76°F  4 mph S  4 mph  13 mph  0.00"  78%  57%  59°F  59°F  N/A
Sat 04:00 PM  66.6°F  77°F  7 mph S  4 mph  15 mph  0.00"  76%  55%  59°F  59°F  N/A
Sat 03:00 PM  67.3°F  77°F  9 mph S  4 mph  14 mph  0.00"  75%  55%  59°F  60°F  N/A
Sat 02:00 PM  67.7°F  77°F  7 mph S  4 mph  17 mph  0.00"  76%  56%  59°F  60°F  N/A
Sat 01:00 PM  66.3°F  77°F  7 mph SE  4 mph  16 mph  0.00"  78%  57%  59°F  60°F  N/A
Sat 12:00 PM  66.2°F  77°F  7 mph SE  4 mph  15 mph  0.00"  80%  58%  60°F  60°F  N/A
Sat 11:00 AM  64.6°F  75°F  7 mph S  3 mph  15 mph  0.00"  83%  61%  59°F  61°F  N/A
Sat 10:00 AM  63.8°F  73°F  3 mph S  2 mph  13 mph  0.00"  84%  65%  59°F  60°F  N/A
Sat 09:00 AM  63.3°F  70°F  6 mph SE  2 mph  10 mph  0.00"  87%  72%  59°F  60°F  N/A
Sat 08:00 AM  62.6°F  66°F  3 mph SE  1 mph  9 mph  0.00"  91%  80%  60°F  60°F  N/A
Sat 07:00 AM  62.4°F  64°F  5 mph S  1 mph  8 mph  0.00"  91%  85%  60°F  59°F  N/A
Sat 06:00 AM  62.5°F  63°F  2 mph SE  1 mph  6 mph  0.00"  91%  86%  60°F  59°F  N/A
Sat 05:00 AM  62.9°F  63°F  2 mph S  1 mph  6 mph  0.00"  90%  86%  60°F  59°F  N/A
Sat 04:00 AM  63.1°F  63°F  2 mph S  1 mph  4 mph  0.00"  89%  86%  60°F  59°F  N/A
Sat 03:00 AM  63.4°F  64°F  1 mph S  calm  6 mph  0.00"  89%  86%  60°F  59°F  N/A
Sat 02:00 AM  64.0°F  64°F  2 mph S  1 mph  5 mph  0.00"  88%  85%  60°F  59°F  N/A
Sat 01:00 AM  64.4°F  64°F  1 mph SW  1 mph  7 mph  0.00"  87%  84%  60°F  59°F  N/A
Sat 12:00 AM  65.3°F  65°F  1 mph SE  1 mph  6 mph  0.00"  85%  83%  60°F  59°F  N/A
Fri 11:00 PM  65.8°F  65°F  1 mph E  1 mph  5 mph  0.00"  83%  82%  60°F  59°F  N/A
Fri 10:00 PM  65.9°F  66°F  2 mph SE  1 mph  5 mph  0.00"  82%  80%  60°F  60°F  N/A
Fri 09:00 PM  66.1°F  67°F  2 mph SW  1 mph  6 mph  0.00"  82%  78%  60°F  59°F  N/A
Fri 08:00 PM  67.1°F  69°F  4 mph SW  2 mph  8 mph  0.00"  81%  74%  61°F  60°F  N/A
Fri 07:00 PM  69.6°F  72°F  4 mph S  3 mph  9 mph  0.00"  76%  65%  61°F  59°F  N/A

  1. Current weather data. No green row appears if the current weather data is also the high or low for the current day.
  2. High temperature for the current day.
  3. Low temperature for the current day.

The San Diego (City Height), California weather pages are a service of WeatherCurrents. City Heights is a San Diego community, located east of Balboa Park, near Interstate 15
Copyright ©Sun Jun 24 06:16:23 PDT 2018  WeatherCurrents. All rights reserved. - Submit questions and comments - Privacy Policy

This page automatically refreshes every 10 minutes.